createdAt,value
2023-05-12T00:01:48.318Z,1.80
2023-05-12T00:04:15.850Z,1.75
2023-05-12T00:06:43.366Z,2.00
2023-05-12T00:09:11.061Z,1.92
2023-05-12T00:11:38.919Z,1.65
2023-05-12T00:14:07.338Z,1.73
2023-05-12T00:16:34.997Z,1.50
2023-05-12T00:19:02.965Z,1.58
2023-05-12T00:21:30.566Z,1.60
2023-05-12T00:23:58.185Z,1.80
2023-05-12T00:26:26.068Z,1.70
2023-05-12T00:28:53.730Z,1.63
2023-05-12T00:31:21.662Z,1.40
2023-05-12T00:33:49.362Z,1.90
2023-05-12T00:36:16.783Z,2.33
2023-05-12T00:38:44.551Z,1.52
2023-05-12T00:41:12.397Z,1.92
2023-05-12T00:43:40.145Z,2.08
2023-05-12T00:46:08.639Z,1.95
2023-05-12T00:48:37.031Z,1.73
2023-05-12T00:51:06.625Z,1.42
2023-05-12T00:53:45.416Z,1.58
2023-05-12T00:56:17.132Z,1.70
2023-05-12T00:58:45.270Z,1.50
2023-05-12T01:01:13.824Z,1.65
2023-05-12T01:03:41.776Z,1.70
2023-05-12T01:06:46.526Z,1.75
2023-05-12T01:09:15.702Z,1.60
2023-05-12T01:11:43.493Z,1.45
2023-05-12T01:14:11.451Z,1.50
2023-05-12T01:16:52.273Z,2.05
2023-05-12T01:19:48.086Z,1.38
2023-05-12T01:22:17.738Z,1.63
2023-05-12T01:25:09.113Z,1.70
2023-05-12T01:27:40.301Z,2.10
2023-05-12T01:30:10.867Z,1.60
2023-05-12T01:32:40.677Z,1.63
2023-05-12T01:35:09.099Z,1.83
2023-05-12T01:37:39.372Z,1.80
2023-05-12T01:40:08.281Z,1.90
2023-05-12T01:42:36.253Z,1.52
2023-05-12T01:45:04.178Z,1.40
2023-05-12T01:47:32.807Z,1.60
2023-05-12T01:50:07.771Z,1.33
2023-05-12T01:52:35.680Z,1.40
2023-05-12T01:55:07.669Z,1.70
2023-05-12T01:57:41.153Z,1.45
2023-05-12T02:00:09.950Z,1.42
2023-05-12T02:02:43.655Z,1.30
2023-05-12T02:05:13.347Z,1.45
2023-05-12T02:07:43.207Z,1.60
2023-05-12T02:10:11.914Z,1.60
2023-05-12T02:12:39.708Z,1.55
2023-05-12T02:15:07.876Z,1.20
2023-05-12T02:17:38.542Z,1.70
2023-05-12T02:20:08.626Z,1.50
2023-05-12T02:22:36.462Z,1.55
2023-05-12T02:25:04.837Z,1.48
2023-05-12T02:27:32.962Z,1.70
2023-05-12T02:30:01.187Z,1.60
2023-05-12T02:32:30.221Z,1.70
2023-05-12T02:34:57.887Z,1.70
2023-05-12T02:37:25.946Z,1.45
2023-05-12T02:39:54.281Z,1.50
2023-05-12T02:42:22.013Z,1.30
2023-05-12T02:44:49.994Z,1.50
2023-05-12T02:47:17.821Z,1.50
2023-05-12T02:49:45.391Z,1.40
2023-05-12T02:52:13.868Z,1.63
2023-05-12T02:54:41.995Z,1.40
2023-05-12T02:57:11.219Z,1.40
2023-05-12T02:59:38.896Z,1.45
2023-05-12T03:02:06.796Z,1.42
2023-05-12T03:04:34.629Z,1.85
2023-05-12T03:07:04.002Z,1.40
2023-05-12T03:09:32.257Z,1.30
2023-05-12T03:12:00.139Z,1.50
2023-05-12T03:14:29.072Z,1.50
2023-05-12T03:19:39.888Z,1.50
2023-05-12T03:22:07.730Z,1.60
2023-05-12T03:24:36.936Z,1.17
2023-05-12T03:27:05.896Z,1.58
2023-05-12T03:29:33.359Z,1.52
2023-05-12T03:32:01.284Z,1.38
2023-05-12T03:34:29.160Z,1.38
2023-05-12T03:36:59.220Z,1.50
2023-05-12T03:39:27.063Z,1.45
2023-05-12T03:41:55.622Z,1.75
2023-05-12T03:44:23.159Z,1.45
2023-05-12T03:46:51.115Z,1.52
2023-05-12T03:49:18.856Z,1.60
2023-05-12T03:51:46.751Z,1.73
2023-05-12T03:54:14.484Z,1.80
2023-05-12T03:56:43.064Z,1.80
2023-05-12T03:59:12.304Z,2.00
2023-05-12T04:02:05.768Z,1.30
2023-05-12T04:04:58.756Z,1.60
2023-05-12T04:07:26.752Z,1.70
2023-05-12T04:09:54.672Z,1.67
2023-05-12T04:12:22.418Z,1.58
2023-05-12T04:14:50.686Z,1.83
2023-05-12T04:17:19.521Z,1.80
2023-05-12T04:19:47.277Z,1.67
2023-05-12T04:22:15.047Z,1.75
2023-05-12T04:24:42.692Z,1.55
2023-05-12T04:27:10.623Z,2.22
2023-05-12T04:29:38.602Z,1.55
2023-05-12T04:32:07.163Z,1.73
2023-05-12T04:34:36.212Z,1.80
2023-05-12T04:37:03.884Z,1.70
2023-05-12T04:39:31.636Z,1.67
2023-05-12T04:42:02.401Z,1.83
2023-05-12T04:44:33.025Z,2.03
2023-05-12T04:47:01.342Z,2.03
2023-05-12T04:49:31.220Z,1.83
2023-05-12T04:51:58.967Z,1.80
2023-05-12T04:54:26.779Z,2.00
2023-05-12T04:56:54.630Z,2.03
2023-05-12T04:59:22.996Z,1.70
2023-05-12T05:01:52.731Z,1.50
2023-05-12T05:04:21.023Z,1.70
2023-05-12T05:06:48.564Z,1.75
2023-05-12T05:09:16.276Z,1.67
2023-05-12T05:11:44.671Z,1.92
2023-05-12T05:14:13.294Z,1.95
2023-05-12T05:16:40.997Z,1.77
2023-05-12T05:19:19.982Z,1.95
2023-05-12T05:21:53.927Z,1.75
2023-05-12T05:24:21.896Z,1.90
2023-05-12T05:26:50.167Z,1.77
2023-05-12T05:29:18.340Z,1.70
2023-05-12T05:31:46.127Z,2.03
2023-05-12T05:34:15.022Z,1.63
2023-05-12T05:36:42.877Z,1.90
2023-05-12T05:39:11.361Z,1.92
2023-05-12T05:41:38.990Z,1.40
2023-05-12T05:44:07.006Z,1.63
2023-05-12T05:46:34.934Z,2.00
2023-05-12T05:49:02.745Z,1.52
2023-05-12T05:51:31.972Z,1.70
2023-05-12T05:54:00.550Z,1.40
2023-05-12T05:56:33.053Z,1.58
2023-05-12T05:59:03.294Z,1.63
2023-05-12T06:01:32.676Z,1.63
2023-05-12T06:04:01.203Z,1.80
2023-05-12T06:06:29.994Z,2.00
2023-05-12T06:08:57.762Z,1.48
2023-05-12T06:11:25.918Z,2.28
2023-05-12T06:13:53.654Z,2.28
2023-05-12T06:16:21.966Z,1.98
2023-05-12T06:18:49.999Z,2.20
2023-05-12T06:21:17.789Z,2.15
2023-05-12T06:23:47.200Z,2.33
2023-05-12T06:26:15.201Z,1.70
2023-05-12T06:28:43.122Z,2.17
2023-05-12T06:31:10.465Z,2.38
2023-05-12T06:33:37.954Z,2.30
2023-05-12T06:36:06.246Z,2.00
2023-05-12T06:38:34.479Z,2.08
2023-05-12T06:41:02.132Z,2.03
2023-05-12T06:43:29.778Z,2.35
2023-05-12T06:45:57.367Z,2.30
2023-05-12T06:48:24.930Z,2.58
2023-05-12T06:50:56.137Z,1.70
2023-05-12T06:53:28.908Z,2.78
2023-05-12T06:55:56.764Z,3.45
2023-05-12T06:58:24.643Z,2.67
2023-05-12T07:00:57.719Z,3.85
2023-05-12T07:03:25.638Z,2.78
2023-05-12T07:05:53.236Z,2.97
2023-05-12T07:08:21.085Z,2.80
2023-05-12T07:10:49.143Z,2.95
2023-05-12T07:13:16.911Z,3.03
2023-05-12T07:15:44.589Z,2.83
2023-05-12T07:18:12.259Z,4.13
2023-05-12T07:20:40.128Z,3.38
2023-05-12T07:23:08.125Z,3.25
2023-05-12T07:25:36.155Z,2.88
2023-05-12T07:28:04.307Z,3.00
2023-05-12T07:30:32.224Z,2.80
2023-05-12T07:33:01.549Z,2.25
2023-05-12T07:35:29.500Z,2.97
2023-05-12T07:37:57.545Z,1.95
2023-05-12T07:40:25.388Z,3.20
2023-05-12T07:42:54.177Z,2.72
2023-05-12T07:45:25.585Z,2.28
2023-05-12T07:47:53.561Z,2.97
2023-05-12T07:50:21.819Z,2.63
2023-05-12T07:52:51.926Z,2.70
2023-05-12T07:55:21.691Z,3.20
2023-05-12T07:57:52.967Z,2.75
2023-05-12T08:00:21.142Z,2.72
2023-05-12T08:02:49.291Z,2.97
2023-05-12T08:05:17.543Z,2.58
2023-05-12T08:07:45.696Z,2.78
2023-05-12T08:10:14.323Z,2.85
2023-05-12T08:12:42.947Z,2.70
2023-05-12T08:15:11.439Z,2.67
2023-05-12T08:17:39.625Z,2.80
2023-05-12T08:20:09.406Z,3.35
2023-05-12T08:22:37.568Z,3.53
2023-05-12T08:25:06.366Z,2.50
2023-05-12T08:27:34.576Z,3.13
2023-05-12T08:30:03.110Z,2.60
2023-05-12T08:32:31.088Z,3.13
2023-05-12T08:34:58.826Z,2.60
2023-05-12T08:37:27.655Z,2.80
2023-05-12T08:39:55.858Z,2.72
2023-05-12T08:42:44.897Z,2.72
2023-05-12T08:45:12.994Z,2.50
2023-05-12T08:47:43.202Z,2.47
2023-05-12T08:50:12.189Z,2.80
2023-05-12T08:52:40.493Z,2.83
2023-05-12T08:55:09.917Z,2.53
2023-05-12T08:57:45.872Z,3.33
2023-05-12T09:00:14.210Z,2.50
2023-05-12T09:02:53.301Z,2.45
2023-05-12T09:05:23.594Z,3.00
2023-05-12T09:07:55.687Z,2.90
2023-05-12T09:13:04.611Z,3.03
2023-05-12T09:15:39.604Z,3.20
2023-05-12T09:18:07.439Z,2.60
2023-05-12T09:20:35.752Z,2.95
2023-05-12T09:23:22.258Z,3.40
2023-05-12T09:26:04.278Z,2.80
2023-05-12T09:28:39.428Z,3.30
2023-05-12T09:31:21.441Z,3.25
2023-05-12T09:33:51.135Z,3.25
2023-05-12T09:36:23.104Z,4.13
2023-05-12T09:39:20.141Z,3.17
2023-05-12T09:41:52.176Z,3.45
2023-05-12T09:44:20.127Z,2.97
2023-05-12T09:46:48.625Z,3.40
2023-05-12T09:49:28.428Z,2.60
2023-05-12T09:52:00.586Z,3.35
2023-05-12T09:54:33.645Z,2.67
2023-05-12T09:57:05.504Z,3.08
2023-05-12T09:59:40.000Z,2.80
2023-05-12T10:02:10.447Z,3.00
2023-05-12T10:04:51.272Z,3.25
2023-05-12T10:07:24.183Z,3.22
2023-05-12T10:09:53.028Z,2.67
2023-05-12T10:12:20.565Z,2.95
2023-05-12T10:14:49.542Z,3.22
2023-05-12T10:17:19.889Z,3.25
2023-05-12T10:19:49.621Z,3.35
2023-05-12T10:22:20.126Z,3.35
2023-05-12T10:24:49.759Z,3.83
2023-05-12T10:27:17.421Z,3.78
2023-05-12T10:29:47.133Z,4.20
2023-05-12T10:32:15.116Z,3.83
2023-05-12T10:34:43.622Z,4.03
2023-05-12T10:37:12.440Z,4.35
2023-05-12T10:39:53.208Z,4.07
2023-05-12T10:42:26.272Z,4.55
2023-05-12T10:44:56.873Z,4.35
2023-05-12T10:47:29.765Z,3.38
2023-05-12T10:50:01.242Z,5.00
2023-05-12T10:52:29.173Z,4.05
2023-05-12T10:55:05.032Z,5.35
2023-05-12T10:57:33.573Z,5.53
2023-05-12T11:00:04.006Z,5.72
2023-05-12T11:02:36.405Z,6.07
2023-05-12T11:05:17.367Z,4.97
2023-05-12T11:07:50.524Z,6.88
2023-05-12T11:10:20.044Z,5.25
2023-05-12T11:12:50.071Z,5.60
2023-05-12T11:15:18.368Z,4.32
2023-05-12T11:17:49.115Z,5.65
2023-05-12T11:20:28.841Z,5.60
2023-05-12T11:22:58.181Z,5.07
2023-05-12T11:25:29.119Z,6.65
2023-05-12T11:27:57.143Z,5.43
2023-05-12T11:30:24.994Z,5.85
2023-05-12T11:33:03.596Z,7.03
2023-05-12T11:35:32.981Z,5.60
2023-05-12T11:38:00.794Z,4.95
2023-05-12T11:40:28.954Z,4.75
2023-05-12T11:42:56.846Z,4.88
2023-05-12T11:45:30.267Z,4.85
2023-05-12T11:48:14.324Z,4.82
2023-05-12T11:50:49.382Z,4.85
2023-05-12T11:53:19.477Z,4.88
2023-05-12T11:55:56.605Z,4.28
2023-05-12T11:58:30.722Z,5.03
2023-05-12T12:01:13.155Z,4.75
2023-05-12T12:03:50.359Z,3.95
2023-05-12T12:06:19.597Z,4.07
2023-05-12T12:09:02.820Z,4.55
2023-05-12T12:11:35.303Z,4.15
2023-05-12T12:14:02.978Z,4.90
2023-05-12T12:16:32.361Z,4.78
2023-05-12T12:19:00.712Z,4.78
2023-05-12T12:21:28.842Z,4.05
2023-05-12T12:23:56.392Z,4.43
2023-05-12T12:26:24.440Z,4.65
2023-05-12T12:28:52.518Z,3.90
2023-05-12T12:31:20.553Z,3.70
2023-05-12T12:33:48.142Z,4.85
2023-05-12T12:36:15.633Z,4.00
2023-05-12T12:38:44.074Z,3.97
2023-05-12T12:41:11.985Z,4.10
2023-05-12T12:43:39.541Z,3.30
2023-05-12T12:46:07.845Z,3.80
2023-05-12T12:48:35.860Z,3.78
2023-05-12T12:51:04.213Z,3.65
2023-05-12T12:53:32.419Z,4.07
2023-05-12T12:56:00.796Z,4.38
2023-05-12T12:58:28.468Z,3.70
2023-05-12T13:00:56.758Z,4.55
2023-05-12T13:03:25.294Z,3.85
2023-05-12T13:05:53.086Z,4.05
2023-05-12T13:08:21.325Z,3.30
2023-05-12T13:10:48.984Z,3.30
2023-05-12T13:13:17.092Z,3.92
2023-05-12T13:15:44.641Z,3.42
2023-05-12T13:18:12.692Z,3.47
2023-05-12T13:20:41.273Z,3.63
2023-05-12T13:23:08.883Z,3.10
2023-05-12T13:25:36.891Z,3.80
2023-05-12T13:28:05.794Z,3.45
2023-05-12T13:30:33.785Z,3.03
2023-05-12T13:33:03.229Z,4.07
2023-05-12T13:35:32.968Z,3.50
2023-05-12T13:38:00.913Z,3.55
2023-05-12T13:40:28.432Z,3.88
2023-05-12T13:42:55.903Z,3.00
2023-05-12T13:45:24.126Z,3.35
2023-05-12T13:47:52.165Z,3.38
2023-05-12T13:50:19.917Z,3.80
2023-05-12T13:52:48.176Z,4.07
2023-05-12T13:55:20.825Z,3.42
2023-05-12T13:57:49.954Z,3.47
2023-05-12T14:00:18.003Z,3.65
2023-05-12T14:02:45.748Z,3.28
2023-05-12T14:05:13.917Z,3.20
2023-05-12T14:07:42.857Z,3.10
2023-05-12T14:10:11.874Z,3.25
2023-05-12T14:12:41.293Z,3.33
2023-05-12T14:15:29.101Z,3.53
2023-05-12T14:17:58.734Z,3.67
2023-05-12T14:20:26.396Z,4.10
2023-05-12T14:22:54.567Z,3.38
2023-05-12T14:25:23.249Z,3.50
2023-05-12T14:27:51.248Z,2.85
2023-05-12T14:30:19.399Z,2.90
2023-05-12T14:32:47.505Z,2.95
2023-05-12T14:35:15.331Z,3.58
2023-05-12T14:37:43.147Z,4.18
2023-05-12T14:40:13.811Z,3.50
2023-05-12T14:42:42.657Z,3.17
2023-05-12T14:45:11.006Z,3.58
2023-05-12T14:47:38.959Z,3.47
2023-05-12T14:50:08.067Z,3.95
2023-05-12T14:52:39.188Z,3.72
2023-05-12T14:55:14.466Z,3.60
2023-05-12T14:57:43.391Z,3.30
2023-05-12T15:00:14.448Z,3.85
2023-05-12T15:02:44.648Z,3.50
2023-05-12T15:05:16.426Z,3.83
2023-05-12T15:07:44.544Z,3.58
2023-05-12T15:10:12.850Z,4.03
2023-05-12T15:12:40.741Z,3.83
2023-05-12T15:15:12.053Z,4.45
2023-05-12T15:17:40.221Z,3.97
2023-05-12T15:20:10.142Z,3.65
2023-05-12T15:22:38.146Z,3.88
2023-05-12T15:25:06.696Z,4.20
2023-05-12T15:27:34.852Z,4.85
2023-05-12T15:30:03.763Z,4.30
2023-05-12T15:32:31.833Z,3.83
2023-05-12T15:34:59.438Z,5.05
2023-05-12T15:37:27.069Z,4.35
2023-05-12T15:39:54.802Z,4.70
2023-05-12T15:42:26.583Z,4.60
2023-05-12T15:45:00.496Z,4.25
2023-05-12T15:47:28.172Z,3.47
2023-05-12T15:49:56.414Z,3.97
2023-05-12T15:52:25.094Z,4.07
2023-05-12T15:54:52.669Z,4.00
2023-05-12T15:57:20.423Z,4.38
2023-05-12T15:59:50.082Z,4.10
2023-05-12T16:02:17.927Z,4.35
2023-05-12T16:04:45.686Z,3.75
2023-05-12T16:07:13.344Z,4.22
2023-05-12T16:09:41.037Z,3.65
2023-05-12T16:12:09.464Z,4.10
2023-05-12T16:14:37.082Z,3.63
2023-05-12T16:17:05.186Z,3.58
2023-05-12T16:19:32.792Z,4.07
2023-05-12T16:22:00.444Z,3.60
2023-05-12T16:24:28.919Z,3.70
2023-05-12T16:26:57.071Z,4.32
2023-05-12T16:29:24.909Z,3.65
2023-05-12T16:31:52.525Z,4.25
2023-05-12T16:34:21.068Z,4.50
2023-05-12T16:36:49.146Z,3.88
2023-05-12T16:39:18.233Z,3.65
2023-05-12T16:41:45.965Z,3.83
2023-05-12T16:44:13.567Z,4.25
2023-05-12T16:46:41.787Z,3.63
2023-05-12T16:49:09.562Z,2.90
2023-05-12T16:51:37.120Z,3.65
2023-05-12T16:54:04.883Z,3.72
2023-05-12T16:56:32.659Z,3.17
2023-05-12T16:59:01.231Z,4.18
2023-05-12T17:01:31.915Z,3.75
2023-05-12T17:04:00.166Z,3.90
2023-05-12T17:06:28.592Z,4.35
2023-05-12T17:08:56.354Z,3.58
2023-05-12T17:11:25.031Z,3.78
2023-05-12T17:13:53.852Z,3.58
2023-05-12T17:16:21.475Z,3.17
2023-05-12T17:21:20.367Z,3.80
2023-05-12T17:23:48.642Z,3.78
2023-05-12T17:26:16.800Z,3.25
2023-05-12T17:28:44.688Z,3.63
2023-05-12T17:31:12.357Z,3.42
2023-05-12T17:33:39.948Z,3.67
2023-05-12T17:36:12.753Z,3.80
2023-05-12T17:38:41.693Z,3.17
2023-05-12T17:41:10.381Z,3.95
2023-05-12T17:43:37.834Z,3.38
2023-05-12T17:46:08.012Z,3.63
2023-05-12T17:48:35.791Z,3.40
2023-05-12T17:51:04.223Z,3.30
2023-05-12T17:53:34.208Z,3.63
2023-05-12T17:56:05.172Z,3.72
2023-05-12T17:58:32.823Z,3.00
2023-05-12T18:01:00.755Z,4.03
2023-05-12T18:03:28.835Z,3.63
2023-05-12T18:05:56.789Z,3.20
2023-05-12T18:08:24.643Z,3.67
2023-05-12T18:10:52.551Z,3.67
2023-05-12T18:13:20.190Z,3.95
2023-05-12T18:15:50.426Z,4.18
2023-05-12T18:18:18.336Z,2.90
2023-05-12T18:20:46.295Z,3.30
2023-05-12T18:23:14.194Z,4.43
2023-05-12T18:25:43.340Z,3.85
2023-05-12T18:28:11.767Z,3.88
2023-05-12T18:30:39.840Z,3.75
2023-05-12T18:33:07.759Z,3.20
2023-05-12T18:35:35.413Z,3.00
2023-05-12T18:38:03.189Z,3.20
2023-05-12T18:40:30.915Z,4.13
2023-05-12T18:42:58.858Z,3.17
2023-05-12T18:45:26.378Z,3.30
2023-05-12T18:47:53.933Z,3.42
2023-05-12T18:50:21.801Z,3.60
2023-05-12T18:52:49.607Z,3.95
2023-05-12T18:55:17.286Z,4.63
2023-05-12T18:57:44.867Z,4.70
2023-05-12T19:00:13.281Z,4.43
2023-05-12T19:02:42.648Z,4.63
2023-05-12T19:05:10.509Z,5.45
2023-05-12T19:07:38.278Z,5.45
2023-05-12T19:10:06.768Z,4.78
2023-05-12T19:12:34.911Z,5.10
2023-05-12T19:15:03.041Z,4.50
2023-05-12T19:17:30.644Z,4.93
2023-05-12T19:19:58.323Z,4.70
2023-05-12T19:22:26.870Z,5.05
2023-05-12T19:24:56.119Z,3.97
2023-05-12T19:27:23.885Z,4.85
2023-05-12T19:29:51.582Z,3.95
2023-05-12T19:32:19.170Z,4.72
2023-05-12T19:34:51.497Z,4.75
2023-05-12T19:37:20.605Z,4.22
2023-05-12T19:39:48.541Z,4.90
2023-05-12T19:42:16.334Z,4.28
2023-05-12T19:44:44.250Z,4.72
2023-05-12T19:47:13.101Z,5.60
2023-05-12T19:49:40.724Z,4.53
2023-05-12T19:52:09.149Z,4.45
2023-05-12T19:54:37.456Z,5.15
2023-05-12T19:57:05.349Z,5.00
2023-05-12T19:59:33.589Z,4.50
2023-05-12T20:02:01.383Z,6.45
2023-05-12T20:04:29.322Z,6.85
2023-05-12T20:06:57.749Z,5.55
2023-05-12T20:09:26.306Z,5.68
2023-05-12T20:11:54.124Z,7.18
2023-05-12T20:14:21.883Z,5.40
2023-05-12T20:16:49.582Z,5.93
2023-05-12T20:19:17.866Z,5.32
2023-05-12T20:21:45.733Z,4.93
2023-05-12T20:24:13.679Z,5.13
2023-05-12T20:26:41.445Z,5.80
2023-05-12T20:29:09.411Z,5.85
2023-05-12T20:31:37.560Z,5.90
2023-05-12T20:34:05.329Z,5.43
2023-05-12T20:36:33.237Z,4.55
2023-05-12T20:39:00.858Z,5.93
2023-05-12T20:41:28.636Z,4.43
2023-05-12T20:43:56.597Z,4.93
2023-05-12T20:46:25.221Z,4.55
2023-05-12T20:48:53.065Z,4.25
2023-05-12T20:51:21.303Z,4.15
2023-05-12T20:53:49.133Z,5.22
2023-05-12T20:56:17.050Z,3.97
2023-05-12T20:58:44.886Z,4.60
2023-05-12T21:01:12.838Z,4.00
2023-05-12T21:03:40.666Z,3.78
2023-05-12T21:06:08.816Z,4.38
2023-05-12T21:08:36.470Z,4.35
2023-05-12T21:11:04.325Z,3.85
2023-05-12T21:13:32.010Z,4.15
2023-05-12T21:16:00.401Z,4.50
2023-05-12T21:18:28.305Z,3.90
2023-05-12T21:20:55.799Z,3.97
2023-05-12T21:23:23.403Z,3.97
2023-05-12T21:25:54.124Z,3.70
2023-05-12T21:28:22.421Z,4.30
2023-05-12T21:30:49.997Z,4.20
2023-05-12T21:33:17.782Z,4.00
2023-05-12T21:35:45.939Z,3.97
2023-05-12T21:38:14.107Z,4.28
2023-05-12T21:40:42.106Z,3.80
2023-05-12T21:43:09.720Z,3.72
2023-05-12T21:45:37.548Z,4.05
2023-05-12T21:48:05.943Z,4.00
2023-05-12T21:50:33.832Z,3.33
2023-05-12T21:53:01.640Z,4.15
2023-05-12T21:55:29.293Z,3.80
2023-05-12T21:57:56.872Z,3.85
2023-05-12T22:00:24.820Z,3.63
2023-05-12T22:02:52.633Z,3.67
2023-05-12T22:05:20.362Z,4.18
2023-05-12T22:07:48.752Z,3.83
2023-05-12T22:10:17.016Z,4.10
2023-05-12T22:12:45.987Z,3.55
2023-05-12T22:15:13.943Z,3.28
2023-05-12T22:17:41.703Z,3.85
2023-05-12T22:20:10.503Z,3.33
2023-05-12T22:22:38.585Z,3.58
2023-05-12T22:25:07.028Z,4.07
2023-05-12T22:27:34.892Z,3.90
2023-05-12T22:30:02.862Z,3.65
2023-05-12T22:32:30.726Z,3.30
2023-05-12T22:34:58.320Z,3.70
2023-05-12T22:37:26.395Z,3.67
2023-05-12T22:39:54.186Z,3.70
2023-05-12T22:42:22.470Z,3.53
2023-05-12T22:44:51.193Z,3.60
2023-05-12T22:47:19.128Z,4.90
2023-05-12T22:49:50.286Z,4.07
2023-05-12T22:52:18.113Z,4.55
2023-05-12T22:54:45.889Z,5.40
2023-05-12T22:57:13.670Z,5.60
2023-05-12T22:59:41.355Z,5.88
2023-05-12T23:02:09.021Z,6.10
2023-05-12T23:04:36.757Z,6.18
2023-05-12T23:07:05.853Z,6.13
2023-05-12T23:09:34.877Z,7.10
2023-05-12T23:12:06.605Z,8.57
2023-05-12T23:14:34.451Z,7.40
2023-05-12T23:17:02.233Z,6.53
2023-05-12T23:19:30.263Z,8.05
2023-05-12T23:21:57.813Z,6.32
2023-05-12T23:24:25.570Z,6.45
2023-05-12T23:26:53.474Z,7.00
2023-05-12T23:29:21.069Z,6.32
2023-05-12T23:31:48.747Z,6.20
2023-05-12T23:34:16.417Z,6.13
2023-05-12T23:36:43.963Z,5.05
2023-05-12T23:39:11.699Z,6.07
2023-05-12T23:41:39.301Z,4.85
2023-05-12T23:44:07.304Z,5.15
2023-05-12T23:46:34.799Z,5.55
2023-05-12T23:49:02.550Z,5.63
2023-05-12T23:51:30.498Z,5.30
2023-05-12T23:53:58.112Z,4.40
2023-05-12T23:56:25.686Z,4.97
2023-05-12T23:58:53.358Z,5.05
